sensor_id;sensor_type;location;lat;lon;timestamp;pressure;altitude;pressure_sealevel;temperature;humidity
55010;BME280;40903;51.638;7.528;2022-09-09T00:00:38;100291.06;;;16.37;100.00
55010;BME280;40903;51.638;7.528;2022-09-09T00:03:50;100277.94;;;16.34;99.29
55010;BME280;40903;51.638;7.528;2022-09-09T00:06:05;100280.09;;;16.28;99.05
55010;BME280;40903;51.638;7.528;2022-09-09T00:08:52;100284.69;;;16.24;99.40
55010;BME280;40903;51.638;7.528;2022-09-09T00:11:21;100279.84;;;16.21;98.87
55010;BME280;40903;51.638;7.528;2022-09-09T00:13:51;100289.13;;;16.17;99.39
55010;BME280;40903;51.638;7.528;2022-09-09T00:16:18;100282.34;;;16.14;99.17
55010;BME280;40903;51.638;7.528;2022-09-09T00:21:47;100285.31;;;16.09;98.75
55010;BME280;40903;51.638;7.528;2022-09-09T00:24:27;100282.09;;;16.07;99.21
55010;BME280;40903;51.638;7.528;2022-09-09T00:27:04;100286.66;;;16.03;99.41
55010;BME280;40903;51.638;7.528;2022-09-09T00:29:35;100290.56;;;16.02;99.93
55010;BME280;40903;51.638;7.528;2022-09-09T00:32:16;100282.94;;;15.99;100.00
55010;BME280;40903;51.638;7.528;2022-09-09T00:34:47;100271.50;;;15.97;100.00
55010;BME280;40903;51.638;7.528;2022-09-09T00:37:14;100273.78;;;15.95;100.00
55010;BME280;40903;51.638;7.528;2022-09-09T00:39:45;100267.13;;;15.96;100.00
55010;BME280;40903;51.638;7.528;2022-09-09T00:42:25;100274.59;;;15.96;100.00
55010;BME280;40903;51.638;7.528;2022-09-09T00:44:53;100267.81;;;15.93;100.00
55010;BME280;40903;51.638;7.528;2022-09-09T00:49:56;100266.53;;;15.91;100.00
55010;BME280;40903;51.638;7.528;2022-09-09T00:52:31;100260.44;;;15.85;100.00
55010;BME280;40903;51.638;7.528;2022-09-09T00:55:05;100257.56;;;15.82;100.00
55010;BME280;40903;51.638;7.528;2022-09-09T00:57:32;100257.41;;;15.78;100.00
55010;BME280;40903;51.638;7.528;2022-09-09T01:00:14;100259.22;;;15.75;100.00
55010;BME280;40903;51.638;7.528;2022-09-09T01:05:24;100260.31;;;15.62;100.00
55010;BME280;40903;51.638;7.528;2022-09-09T01:07:52;100261.44;;;15.61;100.00
55010;BME280;40903;51.638;7.528;2022-09-09T01:10:25;100264.41;;;15.56;100.00
55010;BME280;40903;51.638;7.528;2022-09-09T01:12:53;100267.78;;;15.53;100.00
55010;BME280;40903;51.638;7.528;2022-09-09T01:15:21;100261.81;;;15.51;100.00
55010;BME280;40903;51.638;7.528;2022-09-09T01:17:58;100265.25;;;15.48;100.00
55010;BME280;40903;51.638;7.528;2022-09-09T01:20:28;100254.47;;;15.43;100.00
55010;BME280;40903;51.638;7.528;2022-09-09T01:23:09;100262.22;;;15.41;100.00
55010;BME280;40903;51.638;7.528;2022-09-09T01:28:10;100264.84;;;15.37;100.00
55010;BME280;40903;51.638;7.528;2022-09-09T01:30:38;100262.75;;;15.34;100.00
55010;BME280;40903;51.638;7.528;2022-09-09T01:33:03;100260.66;;;15.31;100.00
55010;BME280;40903;51.638;7.528;2022-09-09T01:35:37;100277.78;;;15.28;100.00
55010;BME280;40903;51.638;7.528;2022-09-09T01:38:03;100276.50;;;15.26;100.00
55010;BME280;40903;51.638;7.528;2022-09-09T01:40:29;100270.03;;;15.22;100.00
55010;BME280;40903;51.638;7.528;2022-09-09T01:42:54;100268.78;;;15.19;100.00
55010;BME280;40903;51.638;7.528;2022-09-09T01:45:19;100265.91;;;15.16;100.00
55010;BME280;40903;51.638;7.528;2022-09-09T01:47:46;100261.06;;;15.13;100.00
55010;BME280;40903;51.638;7.528;2022-09-09T01:50:12;100262.53;;;15.10;100.00
55010;BME280;40903;51.638;7.528;2022-09-09T01:52:39;100261.22;;;15.08;100.00
55010;BME280;40903;51.638;7.528;2022-09-09T01:55:04;100261.59;;;15.06;100.00
55010;BME280;40903;51.638;7.528;2022-09-09T01:57:31;100259.16;;;15.05;100.00
55010;BME280;40903;51.638;7.528;2022-09-09T02:00:05;100256.25;;;15.01;100.00
55010;BME280;40903;51.638;7.528;2022-09-09T02:05:22;100257.28;;;14.97;100.00
55010;BME280;40903;51.638;7.528;2022-09-09T02:07:56;100260.66;;;14.94;100.00
55010;BME280;40903;51.638;7.528;2022-09-09T02:10:35;100256.97;;;14.90;100.00
55010;BME280;40903;51.638;7.528;2022-09-09T02:13:04;100258.56;;;14.91;100.00
55010;BME280;40903;51.638;7.528;2022-09-09T02:15:37;100252.47;;;14.85;100.00
55010;BME280;40903;51.638;7.528;2022-09-09T02:18:06;100257.81;;;14.82;100.00
55010;BME280;40903;51.638;7.528;2022-09-09T02:20:33;100257.97;;;14.77;100.00
55010;BME280;40903;51.638;7.528;2022-09-09T02:22:59;100260.59;;;14.73;100.00
55010;BME280;40903;51.638;7.528;2022-09-09T02:25:26;100254.97;;;14.70;100.00
55010;BME280;40903;51.638;7.528;2022-09-09T02:27:53;100258.03;;;14.68;100.00
55010;BME280;40903;51.638;7.528;2022-09-09T02:30:19;100253.81;;;14.71;100.00
55010;BME280;40903;51.638;7.528;2022-09-09T02:32:45;100264.81;;;14.71;100.00
55010;BME280;40903;51.638;7.528;2022-09-09T02:35:15;100255.44;;;14.72;100.00
55010;BME280;40903;51.638;7.528;2022-09-09T02:37:42;100260.91;;;14.72;100.00
55010;BME280;40903;51.638;7.528;2022-09-09T02:40:11;100261.41;;;14.74;100.00
55010;BME280;40903;51.638;7.528;2022-09-09T02:42:39;100264.97;;;14.74;100.00
55010;BME280;40903;51.638;7.528;2022-09-09T02:45:05;100260.59;;;14.73;100.00
55010;BME280;40903;51.638;7.528;2022-09-09T02:52:24;100259.78;;;14.73;100.00
55010;BME280;40903;51.638;7.528;2022-09-09T02:54:53;100261.59;;;14.69;100.00
55010;BME280;40903;51.638;7.528;2022-09-09T02:57:23;100268.69;;;14.70;100.00
55010;BME280;40903;51.638;7.528;2022-09-09T02:59:50;100269.47;;;14.70;100.00
55010;BME280;40903;51.638;7.528;2022-09-09T03:02:17;100268.69;;;14.70;100.00
55010;BME280;40903;51.638;7.528;2022-09-09T03:04:43;100263.66;;;14.72;100.00
55010;BME280;40903;51.638;7.528;2022-09-09T03:07:09;100266.41;;;14.72;100.00
55010;BME280;40903;51.638;7.528;2022-09-09T03:09:34;100269.16;;;14.72;100.00
55010;BME280;40903;51.638;7.528;2022-09-09T03:12:00;100260.91;;;14.72;100.00
55010;BME280;40903;51.638;7.528;2022-09-09T03:14:25;100263.66;;;14.72;100.00
55010;BME280;40903;51.638;7.528;2022-09-09T03:16:51;100260.59;;;14.73;100.00
55010;BME280;40903;51.638;7.528;2022-09-09T03:19:16;100264.13;;;14.74;100.00
55010;BME280;40903;51.638;7.528;2022-09-09T03:21:43;100257.03;;;14.73;100.00
55010;BME280;40903;51.638;7.528;2022-09-09T03:24:08;100252.69;;;14.72;100.00
55010;BME280;40903;51.638;7.528;2022-09-09T03:26:34;100251.88;;;14.71;100.00
55010;BME280;40903;51.638;7.528;2022-09-09T03:28:59;100251.06;;;14.71;100.00
55010;BME280;40903;51.638;7.528;2022-09-09T03:31:25;100260.09;;;14.71;100.00
55010;BME280;40903;51.638;7.528;2022-09-09T03:33:50;100259.00;;;14.72;100.00
55010;BME280;40903;51.638;7.528;2022-09-09T03:36:16;100253.50;;;14.72;100.00
55010;BME280;40903;51.638;7.528;2022-09-09T03:38:41;100257.03;;;14.73;100.00
55010;BME280;40903;51.638;7.528;2022-09-09T03:41:06;100257.50;;;14.75;100.00
55010;BME280;40903;51.638;7.528;2022-09-09T03:43:32;100249.75;;;14.77;100.00
55010;BME280;40903;51.638;7.528;2022-09-09T03:45:58;100258.47;;;14.79;100.00
55010;BME280;40903;51.638;7.528;2022-09-09T03:48:24;100253.47;;;14.81;100.00
55010;BME280;40903;51.638;7.528;2022-09-09T03:50:50;100255.06;;;14.82;100.00
55010;BME280;40903;51.638;7.528;2022-09-09T03:53:17;100248.09;;;14.84;100.00
55010;BME280;40903;51.638;7.528;2022-09-09T03:55:45;100249.25;;;14.83;100.00
55010;BME280;40903;51.638;7.528;2022-09-09T03:58:11;100246.19;;;14.85;100.00
55010;BME280;40903;51.638;7.528;2022-09-09T04:00:37;100239.56;;;14.86;100.00
55010;BME280;40903;51.638;7.528;2022-09-09T04:03:07;100234.84;;;14.86;100.00
55010;BME280;40903;51.638;7.528;2022-09-09T04:05:32;100245.19;;;14.89;100.00
55010;BME280;40903;51.638;7.528;2022-09-09T04:07:59;100253.56;;;14.93;100.00
55010;BME280;40903;51.638;7.528;2022-09-09T04:10:24;100249.66;;;14.94;100.00
55010;BME280;40903;51.638;7.528;2022-09-09T04:12:49;100250.97;;;14.96;100.00
55010;BME280;40903;51.638;7.528;2022-09-09T04:15:14;100260.81;;;14.97;100.00
55010;BME280;40903;51.638;7.528;2022-09-09T04:17:39;100256.94;;;14.98;100.00
55010;BME280;40903;51.638;7.528;2022-09-09T04:20:05;100261.75;;;15.01;100.00
55010;BME280;40903;51.638;7.528;2022-09-09T04:22:30;100260.28;;;15.04;100.00
55010;BME280;40903;51.638;7.528;2022-09-09T04:24:55;100265.47;;;15.05;100.00
55010;BME280;40903;51.638;7.528;2022-09-09T04:27:20;100264.34;;;15.06;100.00
55010;BME280;40903;51.638;7.528;2022-09-09T04:29:46;100270.63;;;15.07;100.00
55010;BME280;40903;51.638;7.528;2022-09-09T04:32:11;100268.34;;;15.09;100.00
55010;BME280;40903;51.638;7.528;2022-09-09T04:34:36;100260.59;;;15.11;100.00
55010;BME280;40903;51.638;7.528;2022-09-09T04:37:02;100263.81;;;15.13;100.00
55010;BME280;40903;51.638;7.528;2022-09-09T04:39:27;100269.78;;;15.15;100.00
55010;BME280;40903;51.638;7.528;2022-09-09T04:41:52;100266.69;;;15.16;100.00
55010;BME280;40903;51.638;7.528;2022-09-09T04:44:18;100269.09;;;15.18;100.00
55010;BME280;40903;51.638;7.528;2022-09-09T04:46:43;100271.53;;;15.19;100.00
55010;BME280;40903;51.638;7.528;2022-09-09T04:49:08;100273.16;;;15.20;100.00
55010;BME280;40903;51.638;7.528;2022-09-09T04:51:33;100261.81;;;15.22;100.00
55010;BME280;40903;51.638;7.528;2022-09-09T04:53:58;100259.88;;;15.22;100.00
55010;BME280;40903;51.638;7.528;2022-09-09T04:56:23;100268.59;;;15.24;100.00
55010;BME280;40903;51.638;7.528;2022-09-09T04:58:51;100263.91;;;15.25;100.00
55010;BME280;40903;51.638;7.528;2022-09-09T05:01:18;100259.69;;;15.27;100.00
55010;BME280;40903;51.638;7.528;2022-09-09T05:03:44;100265.34;;;15.31;100.00
55010;BME280;40903;51.638;7.528;2022-09-09T05:06:14;100261.47;;;15.32;100.00
55010;BME280;40903;51.638;7.528;2022-09-09T05:08:39;100255.97;;;15.32;100.00
55010;BME280;40903;51.638;7.528;2022-09-09T05:11:24;100260.66;;;15.31;100.00
55010;BME280;40903;51.638;7.528;2022-09-09T05:13:50;100265.03;;;15.32;100.00
55010;BME280;40903;51.638;7.528;2022-09-09T05:16:16;100268.09;;;15.31;100.00
55010;BME280;40903;51.638;7.528;2022-09-09T05:18:42;100263.41;;;15.31;100.00
55010;BME280;40903;51.638;7.528;2022-09-09T05:21:08;100270.53;;;15.32;100.00
55010;BME280;40903;51.638;7.528;2022-09-09T05:23:34;100268.56;;;15.33;100.00
55010;BME280;40903;51.638;7.528;2022-09-09T05:25:59;100272.13;;;15.33;100.00
55010;BME280;40903;51.638;7.528;2022-09-09T05:28:25;100274.53;;;15.35;100.00
55010;BME280;40903;51.638;7.528;2022-09-09T05:31:00;100272.94;;;15.34;100.00
55010;BME280;40903;51.638;7.528;2022-09-09T05:33:28;100271.13;;;15.38;100.00
55010;BME280;40903;51.638;7.528;2022-09-09T05:38:22;100269.19;;;15.38;100.00
55010;BME280;40903;51.638;7.528;2022-09-09T05:40:50;100260.28;;;15.41;100.00
55010;BME280;40903;51.638;7.528;2022-09-09T05:43:15;100263.03;;;15.41;100.00
55010;BME280;40903;51.638;7.528;2022-09-09T05:45:40;100262.34;;;15.44;100.00
55010;BME280;40903;51.638;7.528;2022-09-09T05:48:05;100262.50;;;15.48;100.00
55010;BME280;40903;51.638;7.528;2022-09-09T05:50:31;100264.56;;;15.51;100.00
55010;BME280;40903;51.638;7.528;2022-09-09T05:52:56;100263.91;;;15.54;100.00
55010;BME280;40903;51.638;7.528;2022-09-09T05:55:21;100258.56;;;15.57;100.00
55010;BME280;40903;51.638;7.528;2022-09-09T05:57:49;100261.75;;;15.59;100.00
55010;BME280;40903;51.638;7.528;2022-09-09T06:00:16;100265.81;;;15.62;100.00
55010;BME280;40903;51.638;7.528;2022-09-09T06:02:42;100260.09;;;15.67;100.00
55010;BME280;40903;51.638;7.528;2022-09-09T06:05:07;100261.38;;;15.69;100.00
55010;BME280;40903;51.638;7.528;2022-09-09T06:07:33;100262.66;;;15.72;100.00
55010;BME280;40903;51.638;7.528;2022-09-09T06:09:58;100261.97;;;15.75;100.00
55010;BME280;40903;51.638;7.528;2022-09-09T06:12:24;100269.56;;;15.77;100.00
55010;BME280;40903;51.638;7.528;2022-09-09T06:14:50;100258.22;;;15.79;100.00
55010;BME280;40903;51.638;7.528;2022-09-09T06:17:16;100269.03;;;15.84;100.00
55010;BME280;40903;51.638;7.528;2022-09-09T06:19:41;100267.56;;;15.86;100.00
55010;BME280;40903;51.638;7.528;2022-09-09T06:22:07;100268.94;;;15.92;100.00
55010;BME280;40903;51.638;7.528;2022-09-09T06:24:32;100269.19;;;15.99;100.00
55010;BME280;40903;51.638;7.528;2022-09-09T06:26:57;100268.66;;;16.06;100.00
55010;BME280;40903;51.638;7.528;2022-09-09T06:29:23;100270.88;;;16.12;100.00
55010;BME280;40903;51.638;7.528;2022-09-09T06:31:48;100271.94;;;16.20;100.00
55010;BME280;40903;51.638;7.528;2022-09-09T06:34:13;100276.09;;;16.26;100.00
55010;BME280;40903;51.638;7.528;2022-09-09T06:36:38;100278.31;;;16.32;100.00
55010;BME280;40903;51.638;7.528;2022-09-09T06:39:04;100283.16;;;16.35;100.00
55010;BME280;40903;51.638;7.528;2022-09-09T06:41:30;100275.59;;;16.44;100.00
55010;BME280;40903;51.638;7.528;2022-09-09T06:43:56;100288.81;;;16.51;100.00
55010;BME280;40903;51.638;7.528;2022-09-09T06:46:22;100288.25;;;16.57;100.00
55010;BME280;40903;51.638;7.528;2022-09-09T06:48:48;100284.16;;;16.63;100.00
55010;BME280;40903;51.638;7.528;2022-09-09T06:53:39;100284.19;;;16.75;100.00
55010;BME280;40903;51.638;7.528;2022-09-09T06:58:39;100287.31;;;16.86;100.00
55010;BME280;40903;51.638;7.528;2022-09-09T07:01:08;100281.56;;;16.91;100.00
55010;BME280;40903;51.638;7.528;2022-09-09T07:03:33;100279.06;;;16.98;100.00
55010;BME280;40903;51.638;7.528;2022-09-09T07:05:58;100285.94;;;17.04;100.00
55010;BME280;40903;51.638;7.528;2022-09-09T07:08:24;100286.53;;;17.09;99.84
55010;BME280;40903;51.638;7.528;2022-09-09T07:10:50;100283.66;;;17.18;98.96
55010;BME280;40903;51.638;7.528;2022-09-09T07:13:16;100279.50;;;17.24;98.15
55010;BME280;40903;51.638;7.528;2022-09-09T07:15:41;100284.31;;;17.27;97.48
55010;BME280;40903;51.638;7.528;2022-09-09T07:18:07;100288.03;;;17.31;97.71
55010;BME280;40903;51.638;7.528;2022-09-09T07:20:34;100292.28;;;17.40;98.09
55010;BME280;40903;51.638;7.528;2022-09-09T07:22:59;100293.78;;;17.50;96.76
55010;BME280;40903;51.638;7.528;2022-09-09T07:25:24;100297.22;;;17.59;96.98
55010;BME280;40903;51.638;7.528;2022-09-09T07:27:52;100295.38;;;17.63;94.02
55010;BME280;40903;51.638;7.528;2022-09-09T07:30:18;100292.94;;;17.61;93.52
55010;BME280;40903;51.638;7.528;2022-09-09T07:32:44;100298.72;;;17.68;94.45
55010;BME280;40903;51.638;7.528;2022-09-09T07:35:09;100304.78;;;17.74;93.37
55010;BME280;40903;51.638;7.528;2022-09-09T07:37:36;100303.28;;;17.76;91.62
55010;BME280;40903;51.638;7.528;2022-09-09T07:40:01;100300.63;;;17.80;91.21
55010;BME280;40903;51.638;7.528;2022-09-09T07:42:28;100308.78;;;17.88;89.80
55010;BME280;40903;51.638;7.528;2022-09-09T07:44:54;100292.34;;;17.91;89.43
55010;BME280;40903;51.638;7.528;2022-09-09T07:47:19;100295.75;;;18.00;88.30
55010;BME280;40903;51.638;7.528;2022-09-09T07:49:45;100304.13;;;18.04;87.62
55010;BME280;40903;51.638;7.528;2022-09-09T07:52:11;100304.69;;;18.09;87.80
55010;BME280;40903;51.638;7.528;2022-09-09T07:54:37;100306.41;;;18.14;87.32
55010;BME280;40903;51.638;7.528;2022-09-09T07:57:02;100293.03;;;18.28;87.03
55010;BME280;40903;51.638;7.528;2022-09-09T07:59:28;100302.34;;;18.51;88.27
55010;BME280;40903;51.638;7.528;2022-09-09T08:01:54;100305.00;;;18.75;85.01
55010;BME280;40903;51.638;7.528;2022-09-09T08:04:20;100311.19;;;18.99;84.19
55010;BME280;40903;51.638;7.528;2022-09-09T08:06:47;100309.34;;;19.19;79.26
55010;BME280;40903;51.638;7.528;2022-09-09T08:09:13;100317.63;;;19.34;76.12
55010;BME280;40903;51.638;7.528;2022-09-09T08:11:38;100311.13;;;19.42;76.19
55010;BME280;40903;51.638;7.528;2022-09-09T08:14:04;100303.50;;;19.55;80.04
55010;BME280;40903;51.638;7.528;2022-09-09T08:16:32;100317.53;;;19.62;73.72
55010;BME280;40903;51.638;7.528;2022-09-09T08:18:58;100315.97;;;19.64;73.99
55010;BME280;40903;51.638;7.528;2022-09-09T08:21:29;100306.69;;;19.72;72.67
55010;BME280;40903;51.638;7.528;2022-09-09T08:23:56;100302.34;;;19.90;77.25
55010;BME280;40903;51.638;7.528;2022-09-09T08:26:28;100316.66;;;20.11;72.65
55010;BME280;40903;51.638;7.528;2022-09-09T08:28:55;100308.75;;;20.28;70.34
55010;BME280;40903;51.638;7.528;2022-09-09T08:31:29;100307.63;;;20.52;71.94
55010;BME280;40903;51.638;7.528;2022-09-09T08:33:56;100312.78;;;20.72;70.95
55010;BME280;40903;51.638;7.528;2022-09-09T08:36:24;100317.09;;;20.89;66.92
55010;BME280;40903;51.638;7.528;2022-09-09T08:38:52;100319.19;;;20.95;67.26
55010;BME280;40903;51.638;7.528;2022-09-09T08:44:28;100311.16;;;21.35;65.37
55010;BME280;40903;51.638;7.528;2022-09-09T08:52:23;100315.03;;;22.05;65.34
55010;BME280;40903;51.638;7.528;2022-09-09T08:54:51;100319.09;;;22.11;62.13
55010;BME280;40903;51.638;7.528;2022-09-09T08:57:21;100315.19;;;21.86;60.92
55010;BME280;40903;51.638;7.528;2022-09-09T08:59:51;100318.97;;;21.75;60.55
55010;BME280;40903;51.638;7.528;2022-09-09T09:02:27;100320.78;;;21.64;62.31
55010;BME280;40903;51.638;7.528;2022-09-09T09:05:14;100313.06;;;21.54;62.10
55010;BME280;40903;51.638;7.528;2022-09-09T09:07:55;100330.19;;;21.59;60.64
55010;BME280;40903;51.638;7.528;2022-09-09T09:10:29;100322.19;;;21.54;60.83
55010;BME280;40903;51.638;7.528;2022-09-09T09:12:59;100326.44;;;21.48;61.45
55010;BME280;40903;51.638;7.528;2022-09-09T09:15:27;100319.84;;;21.56;61.85
55010;BME280;40903;51.638;7.528;2022-09-09T09:17:55;100323.91;;;21.62;58.66
55010;BME280;40903;51.638;7.528;2022-09-09T09:20:22;100336.03;;;21.77;58.91
55010;BME280;40903;51.638;7.528;2022-09-09T09:22:55;100328.19;;;21.82;57.83
55010;BME280;40903;51.638;7.528;2022-09-09T09:25:25;100326.16;;;22.05;60.14
55010;BME280;40903;51.638;7.528;2022-09-09T09:28:00;100323.81;;;22.07;57.01
55010;BME280;40903;51.638;7.528;2022-09-09T09:30:26;100326.28;;;22.15;58.02
55010;BME280;40903;51.638;7.528;2022-09-09T09:33:02;100312.94;;;22.28;57.02
55010;BME280;40903;51.638;7.528;2022-09-09T09:35:28;100317.81;;;22.64;58.14
55010;BME280;40903;51.638;7.528;2022-09-09T09:37:53;100313.91;;;22.72;54.01
55010;BME280;40903;51.638;7.528;2022-09-09T09:40:19;100319.88;;;22.70;52.31
55010;BME280;40903;51.638;7.528;2022-09-09T09:42:55;100321.09;;;22.40;53.42
55010;BME280;40903;51.638;7.528;2022-09-09T09:47:59;100315.84;;;22.68;52.95
55010;BME280;40903;51.638;7.528;2022-09-09T09:50:25;100311.28;;;22.86;53.19
55010;BME280;40903;51.638;7.528;2022-09-09T09:52:54;100300.69;;;22.98;51.21
55010;BME280;40903;51.638;7.528;2022-09-09T09:55:20;100309.47;;;23.00;54.07
55010;BME280;40903;51.638;7.528;2022-09-09T09:57:45;100316.00;;;22.82;51.67
55010;BME280;40903;51.638;7.528;2022-09-09T10:02:40;100321.59;;;22.49;53.29
55010;BME280;40903;51.638;7.528;2022-09-09T10:07:42;100325.16;;;22.20;54.45
55010;BME280;40903;51.638;7.528;2022-09-09T10:10:15;100316.72;;;22.13;52.83
55010;BME280;40903;51.638;7.528;2022-09-09T10:12:57;100318.94;;;22.30;55.88
55010;BME280;40903;51.638;7.528;2022-09-09T10:15:48;100309.63;;;22.45;53.46
55010;BME280;40903;51.638;7.528;2022-09-09T10:26:21;100304.41;;;23.60;50.97
55010;BME280;40903;51.638;7.528;2022-09-09T10:31:31;100316.16;;;23.86;47.41
55010;BME280;40903;51.638;7.528;2022-09-09T10:36:31;100311.63;;;23.21;49.85
55010;BME280;40903;51.638;7.528;2022-09-09T10:39:14;100312.25;;;23.04;49.92
55010;BME280;40903;51.638;7.528;2022-09-09T10:44:47;100301.19;;;23.54;51.19
55010;BME280;40903;51.638;7.528;2022-09-09T10:53:02;100300.69;;;23.96;45.85
55010;BME280;40903;51.638;7.528;2022-09-09T10:55:35;100299.56;;;24.04;47.89
55010;BME280;40903;51.638;7.528;2022-09-09T10:58:03;100292.91;;;24.32;50.41
55010;BME280;40903;51.638;7.528;2022-09-09T11:03:05;100301.97;;;24.05;47.09
55010;BME280;40903;51.638;7.528;2022-09-09T11:05:47;100298.97;;;23.77;47.70
55010;BME280;40903;51.638;7.528;2022-09-09T11:08:23;100293.16;;;23.46;49.74
55010;BME280;40903;51.638;7.528;2022-09-09T11:11:03;100291.31;;;23.60;49.30
55010;BME280;40903;51.638;7.528;2022-09-09T11:13:41;100297.84;;;23.85;45.65
55010;BME280;40903;51.638;7.528;2022-09-09T11:16:19;100305.09;;;24.00;44.56
55010;BME280;40903;51.638;7.528;2022-09-09T11:18:47;100296.44;;;24.22;45.91
55010;BME280;40903;51.638;7.528;2022-09-09T11:21:27;100304.47;;;24.34;43.06
55010;BME280;40903;51.638;7.528;2022-09-09T11:23:59;100296.56;;;24.43;42.72
55010;BME280;40903;51.638;7.528;2022-09-09T11:26:45;100286.56;;;24.35;43.78
55010;BME280;40903;51.638;7.528;2022-09-09T11:29:45;100297.34;;;24.47;42.93
55010;BME280;40903;51.638;7.528;2022-09-09T11:35:38;100289.06;;;24.68;42.44
55010;BME280;40903;51.638;7.528;2022-09-09T11:38:27;100295.88;;;24.74;41.50
55010;BME280;40903;51.638;7.528;2022-09-09T11:41:01;100303.88;;;24.83;42.59
55010;BME280;40903;51.638;7.528;2022-09-09T11:43:41;100293.91;;;24.89;43.44
55010;BME280;40903;51.638;7.528;2022-09-09T11:46:08;100294.31;;;24.94;43.08
55010;BME280;40903;51.638;7.528;2022-09-09T11:48:36;100291.91;;;24.75;41.20
55010;BME280;40903;51.638;7.528;2022-09-09T11:51:11;100283.09;;;24.59;43.50
55010;BME280;40903;51.638;7.528;2022-09-09T11:53:54;100293.78;;;24.50;42.17
55010;BME280;40903;51.638;7.528;2022-09-09T11:59:02;100275.53;;;23.82;43.34
55010;BME280;40903;51.638;7.528;2022-09-09T12:01:33;100279.88;;;23.79;44.36
55010;BME280;40903;51.638;7.528;2022-09-09T12:04:12;100273.97;;;23.84;43.41
55010;BME280;40903;51.638;7.528;2022-09-09T12:06:46;100275.50;;;23.78;43.63
55010;BME280;40903;51.638;7.528;2022-09-09T12:09:57;100276.59;;;23.63;44.71
55010;BME280;40903;51.638;7.528;2022-09-09T12:12:43;100271.13;;;23.77;45.08
55010;BME280;40903;51.638;7.528;2022-09-09T12:17:51;100269.41;;;24.26;45.35
55010;BME280;40903;51.638;7.528;2022-09-09T12:22:51;100271.22;;;23.88;43.41
55010;BME280;40903;51.638;7.528;2022-09-09T12:25:46;100270.63;;;23.61;44.70
55010;BME280;40903;51.638;7.528;2022-09-09T12:28:22;100280.81;;;23.43;45.01
55010;BME280;40903;51.638;7.528;2022-09-09T12:30:58;100272.69;;;23.21;45.55
55010;BME280;40903;51.638;7.528;2022-09-09T12:33:34;100270.94;;;23.06;46.13
55010;BME280;40903;51.638;7.528;2022-09-09T12:36:01;100287.56;;;22.99;45.81
55010;BME280;40903;51.638;7.528;2022-09-09T12:38:38;100273.47;;;22.78;46.34
55010;BME280;40903;51.638;7.528;2022-09-09T12:41:04;100288.81;;;22.65;46.61
55010;BME280;40903;51.638;7.528;2022-09-09T12:43:30;100281.88;;;22.48;47.30
55010;BME280;40903;51.638;7.528;2022-09-09T12:46:00;100285.69;;;22.37;47.56
55010;BME280;40903;51.638;7.528;2022-09-09T12:48:35;100287.53;;;22.26;48.58
55010;BME280;40903;51.638;7.528;2022-09-09T12:51:02;100277.31;;;22.33;50.97
55010;BME280;40903;51.638;7.528;2022-09-09T12:53:35;100291.63;;;22.35;49.22
55010;BME280;40903;51.638;7.528;2022-09-09T12:56:08;100282.09;;;22.33;52.05
55010;BME280;40903;51.638;7.528;2022-09-09T12:58:45;100287.28;;;22.38;52.16
55010;BME280;40903;51.638;7.528;2022-09-09T13:01:21;100290.16;;;22.45;51.53
55010;BME280;40903;51.638;7.528;2022-09-09T13:03:47;100300.88;;;22.43;56.48
55010;BME280;40903;51.638;7.528;2022-09-09T13:06:21;100298.59;;;22.52;56.51
55010;BME280;40903;51.638;7.528;2022-09-09T13:08:48;100309.22;;;22.76;57.38
55010;BME280;40903;51.638;7.528;2022-09-09T13:11:18;100298.13;;;22.46;55.31
55010;BME280;40903;51.638;7.528;2022-09-09T13:13:51;100295.22;;;22.36;56.81
55010;BME280;40903;51.638;7.528;2022-09-09T13:16:25;100298.22;;;22.24;55.56
55010;BME280;40903;51.638;7.528;2022-09-09T13:18:52;100295.59;;;22.05;55.93
55010;BME280;40903;51.638;7.528;2022-09-09T13:21:18;100291.09;;;21.94;56.46
55010;BME280;40903;51.638;7.528;2022-09-09T13:23:49;100290.34;;;21.71;56.51
55010;BME280;40903;51.638;7.528;2022-09-09T13:26:26;100282.22;;;21.59;57.98
55010;BME280;40903;51.638;7.528;2022-09-09T13:28:53;100284.19;;;21.58;59.23
55010;BME280;40903;51.638;7.528;2022-09-09T13:33:49;100275.91;;;21.62;58.77
55010;BME280;40903;51.638;7.528;2022-09-09T13:36:15;100268.25;;;21.52;57.58
55010;BME280;40903;51.638;7.528;2022-09-09T13:38:57;100268.75;;;21.61;58.96
55010;BME280;40903;51.638;7.528;2022-09-09T13:41:42;100263.88;;;21.77;59.66
55010;BME280;40903;51.638;7.528;2022-09-09T13:44:26;100276.94;;;22.35;55.06
55010;BME280;40903;51.638;7.528;2022-09-09T13:47:06;100265.81;;;22.68;54.72
55010;BME280;40903;51.638;7.528;2022-09-09T13:49:42;100265.59;;;22.87;54.56
55010;BME280;40903;51.638;7.528;2022-09-09T13:52:15;100266.47;;;22.91;55.30
55010;BME280;40903;51.638;7.528;2022-09-09T13:54:42;100268.38;;;22.83;55.30
55010;BME280;40903;51.638;7.528;2022-09-09T13:57:22;100260.88;;;22.51;55.13
55010;BME280;40903;51.638;7.528;2022-09-09T13:59:49;100262.81;;;22.17;55.89
55010;BME280;40903;51.638;7.528;2022-09-09T14:02:15;100262.28;;;22.05;55.51
55010;BME280;40903;51.638;7.528;2022-09-09T14:04:42;100260.44;;;21.87;56.65
55010;BME280;40903;51.638;7.528;2022-09-09T14:07:15;100256.81;;;21.83;58.60
55010;BME280;40903;51.638;7.528;2022-09-09T14:09:41;100257.19;;;21.81;56.31
55010;BME280;40903;51.638;7.528;2022-09-09T14:12:13;100254.81;;;21.80;57.48
55010;BME280;40903;51.638;7.528;2022-09-09T14:14:40;100266.28;;;21.78;56.33
55010;BME280;40903;51.638;7.528;2022-09-09T14:17:07;100260.25;;;21.73;57.37